Time;durP1;ratioP1;P1;durP2;ratioP2;P2;SDS_P1;SDS_P2;PMS_P1;PMS_P2;Temp;Humidity;BMP_temperature;BMP_pressure;BME280_temperature;BME280_humidity;BME280_pressure;Samples;Min_cycle;Max_cycle;Signal;HPM_P1;HPM_P2
2024/02/29 00:01:43;;;;;;;;;;;;;;;21.77;26.98;98572.53;4922496;29;1260;-75
2024/02/29 00:04:08;;;;;;;;;;;;;;;21.81;26.76;98568.41;4937766;29;952;-75
2024/02/29 00:06:34;;;;;;;;;;;;;;;21.42;27.33;98574.75;4938019;29;1023;-75
2024/02/29 00:09:00;;;;;;;;;;;;;;;21.30;27.86;98566.88;4922294;29;1006;-75
2024/02/29 00:11:25;;;;;;;;;;;;;;;21.76;27.05;98566.06;4906769;29;1103;-75
2024/02/29 00:13:52;;;;;;;;;;;;;;;22.06;26.74;98567.09;4966226;28;2164;-74
2024/02/29 00:16:18;;;;;;;;;;;;;;;22.01;26.84;98564.78;4976318;28;960;-76
2024/02/29 00:18:45;;;;;;;;;;;;;;;21.56;27.13;98562.38;4976001;28;922;-75
2024/02/29 00:21:10;;;;;;;;;;;;;;;21.14;27.88;98564.66;4937954;29;1068;-75
2024/02/29 00:23:36;;;;;;;;;;;;;;;21.32;27.76;98559.53;4939469;29;961;-76
2024/02/29 00:26:01;;;;;;;;;;;;;;;21.84;27.15;98559.03;4957232;29;1075;-75
2024/02/29 00:28:27;;;;;;;;;;;;;;;21.94;26.91;98553.59;4940755;29;1005;-75
2024/02/29 00:30:52;;;;;;;;;;;;;;;22.01;26.82;98564.78;4925484;29;1074;-76
2024/02/29 00:33:18;;;;;;;;;;;;;;;22.03;26.87;98559.50;4940426;29;1976;-76
2024/02/29 00:35:43;;;;;;;;;;;;;;;21.61;27.12;98556.22;4940899;29;1079;-75
2024/02/29 00:38:10;;;;;;;;;;;;;;;21.59;27.09;98559.47;5000327;28;999;-75
2024/02/29 00:40:36;;;;;;;;;;;;;;;21.56;27.24;98563.19;4982721;28;1120;-75
2024/02/29 00:43:01;;;;;;;;;;;;;;;21.55;27.35;98555.94;4998600;28;1278;-75
2024/02/29 00:45:27;;;;;;;;;;;;;;;21.77;27.03;98553.50;4998552;28;1034;-75
2024/02/29 00:47:54;;;;;;;;;;;;;;;21.93;27.05;98552.00;4998305;28;1067;-75
2024/02/29 00:50:23;;;;;;;;;;;;;;;21.91;27.12;98554.44;5014838;28;999;-75
2024/02/29 00:52:48;;;;;;;;;;;;;;;21.55;27.40;98546.59;5032257;28;1983;-76
2024/02/29 00:55:14;;;;;;;;;;;;;;;21.49;27.56;98551.16;5035525;28;1051;-75
2024/02/29 00:57:40;;;;;;;;;;;;;;;21.46;27.52;98546.38;5035823;28;915;-75
2024/02/29 01:00:07;;;;;;;;;;;;;;;21.68;27.39;98547.59;5035454;28;1012;-74
2024/02/29 01:02:32;;;;;;;;;;;;;;;21.89;26.81;98546.38;5037510;28;893;-75
2024/02/29 01:04:58;;;;;;;;;;;;;;;21.90;27.02;98544.34;5034750;28;997;-75
2024/02/29 01:07:24;;;;;;;;;;;;;;;21.97;26.92;98552.72;5001778;28;967;-75
2024/02/29 01:09:49;;;;;;;;;;;;;;;21.74;27.00;98553.56;5036578;28;866;-75
2024/02/29 01:12:15;;;;;;;;;;;;;;;21.65;27.02;98548.44;5035472;28;1959;-75
2024/02/29 01:14:40;;;;;;;;;;;;;;;21.58;27.09;98555.03;5018166;28;1069;-76
2024/02/29 01:17:06;;;;;;;;;;;;;;;21.89;27.03;98554.09;5035567;28;881;-75
2024/02/29 01:19:31;;;;;;;;;;;;;;;21.62;27.57;98545.69;5035251;28;1571;-75
2024/02/29 01:21:57;;;;;;;;;;;;;;;21.78;27.18;98552.25;5018923;28;1131;-75
2024/02/29 01:24:24;;;;;;;;;;;;;;;21.96;27.21;98545.44;4997773;28;1163;-76
2024/02/29 01:26:50;;;;;;;;;;;;;;;21.69;27.40;98546.34;4998368;28;988;-75
2024/02/29 01:29:15;;;;;;;;;;;;;;;21.49;27.22;98545.50;4981780;28;1120;-74
2024/02/29 01:31:41;;;;;;;;;;;;;;;21.21;27.97;98546.75;4998342;28;948;-76
2024/02/29 01:34:06;;;;;;;;;;;;;;;21.61;27.71;98547.72;4997747;28;1914;-74
2024/02/29 01:36:32;;;;;;;;;;;;;;;21.78;27.32;98540.94;4981904;28;1280;-75
2024/02/29 01:38:57;;;;;;;;;;;;;;;22.02;27.07;98538.84;4974482;28;1070;-75
2024/02/29 01:41:23;;;;;;;;;;;;;;;22.02;27.22;98540.88;4975303;28;1028;-74
2024/02/29 01:43:49;;;;;;;;;;;;;;;21.77;27.38;98545.00;4975140;28;1124;-75
2024/02/29 01:46:15;;;;;;;;;;;;;;;21.54;27.73;98542.19;4975479;28;1049;-76
2024/02/29 01:48:41;;;;;;;;;;;;;;;21.56;27.73;98534.88;4974823;28;1054;-75
2024/02/29 01:51:06;;;;;;;;;;;;;;;21.85;27.47;98540.78;4936676;29;1254;-75
2024/02/29 01:53:32;;;;;;;;;;;;;;;21.81;27.61;98540.06;4917289;29;1980;-76
2024/02/29 01:55:57;;;;;;;;;;;;;;;21.83;27.46;98537.59;4902143;29;972;-75
2024/02/29 01:58:23;;;;;;;;;;;;;;;21.98;27.29;98537.31;4901612;29;1006;-76
2024/02/29 02:00:48;;;;;;;;;;;;;;;21.54;27.86;98531.66;4902382;29;1001;-75
2024/02/29 02:03:14;;;;;;;;;;;;;;;21.50;27.81;98536.59;4901958;29;1193;-76
2024/02/29 02:05:39;;;;;;;;;;;;;;;21.73;27.58;98532.94;4901958;29;1593;-75
2024/02/29 02:08:05;;;;;;;;;;;;;;;21.73;27.86;98540.63;4917334;29;991;-75
2024/02/29 02:10:30;;;;;;;;;;;;;;;22.00;27.45;98534.84;4917749;29;1111;-75
2024/02/29 02:12:56;;;;;;;;;;;;;;;21.89;27.63;98545.59;4917474;29;1969;-75
2024/02/29 02:15:21;;;;;;;;;;;;;;;21.69;27.48;98539.88;4904508;29;937;-76
2024/02/29 02:17:49;;;;;;;;;;;;;;;21.05;28.63;98544.59;4942450;29;1217;-75
2024/02/29 02:20:18;;;;;;;;;;;;;;;21.43;27.63;98547.22;4912318;29;1308;-75
2024/02/29 02:22:43;;;;;;;;;;;;;;;21.72;27.80;98545.50;4987859;28;1020;-75
2024/02/29 02:25:09;;;;;;;;;;;;;;;21.96;27.54;98542.59;5034404;28;982;-75
2024/02/29 02:27:34;;;;;;;;;;;;;;;22.06;27.04;98544.44;5038168;28;932;-75
2024/02/29 02:30:06;;;;;;;;;;;;;;;21.94;27.36;98543.06;5038652;28;996;-75
2024/02/29 02:32:32;;;;;;;;;;;;;;;21.57;27.58;98553.44;5038132;28;1979;-75
2024/02/29 02:34:58;;;;;;;;;;;;;;;21.40;27.80;98553.75;5021689;28;1095;-76
2024/02/29 02:37:23;;;;;;;;;;;;;;;21.61;27.55;98542.06;5038026;28;981;-75
2024/02/29 02:39:48;;;;;;;;;;;;;;;21.98;27.23;98543.00;5037906;28;1099;-75
2024/02/29 02:42:14;;;;;;;;;;;;;;;22.05;27.26;98554.19;5038504;28;945;-75
2024/02/29 02:44:39;;;;;;;;;;;;;;;21.98;27.26;98551.50;5039333;28;946;-76
2024/02/29 02:47:05;;;;;;;;;;;;;;;22.00;27.24;98546.97;5038187;28;912;-75
2024/02/29 02:49:30;;;;;;;;;;;;;;;21.83;27.17;98551.75;5038968;28;841;-75
2024/02/29 02:51:56;;;;;;;;;;;;;;;21.43;27.58;98544.41;5038163;28;1905;-75
2024/02/29 02:54:21;;;;;;;;;;;;;;;21.36;27.68;98558.69;5038218;28;861;-75
2024/02/29 02:56:47;;;;;;;;;;;;;;;21.66;27.78;98550.06;5039350;28;1005;-76
2024/02/29 02:59:12;;;;;;;;;;;;;;;21.95;27.23;98558.81;5020933;28;983;-75
2024/02/29 03:01:38;;;;;;;;;;;;;;;22.01;27.10;98556.28;5037759;28;948;-75
2024/02/29 03:04:06;;;;;;;;;;;;;;;21.83;27.41;98548.94;5037841;28;976;-75
2024/02/29 03:06:32;;;;;;;;;;;;;;;22.01;26.96;98553.44;5038669;28;919;-76
2024/02/29 03:08:57;;;;;;;;;;;;;;;21.56;27.50;98551.06;5037273;28;943;-75
2024/02/29 03:11:23;;;;;;;;;;;;;;;21.60;27.44;98540.44;5037311;28;1017;-76
2024/02/29 03:13:48;;;;;;;;;;;;;;;21.39;28.04;98538.00;5037503;28;1979;-75
2024/02/29 03:16:23;;;;;;;;;;;;;;;21.86;27.49;98541.59;5036364;28;1231;-75
2024/02/29 03:18:48;;;;;;;;;;;;;;;21.89;27.30;98537.09;5036053;28;1051;-75
2024/02/29 03:21:14;;;;;;;;;;;;;;;22.00;27.11;98541.31;5003222;28;941;-75
2024/02/29 03:23:40;;;;;;;;;;;;;;;21.95;26.86;98543.84;5019874;28;961;-75
2024/02/29 03:26:05;;;;;;;;;;;;;;;21.64;27.29;98541.19;5003299;28;1009;-75
2024/02/29 03:28:31;;;;;;;;;;;;;;;21.58;27.36;98543.72;5035696;28;1123;-75
2024/02/29 03:30:57;;;;;;;;;;;;;;;21.51;27.92;98543.06;5036121;28;996;-75
2024/02/29 03:33:22;;;;;;;;;;;;;;;21.81;27.37;98534.41;5002796;28;1971;-75
2024/02/29 03:35:48;;;;;;;;;;;;;;;21.90;27.32;98538.69;5036393;28;998;-75
2024/02/29 03:38:14;;;;;;;;;;;;;;;22.02;27.15;98538.03;5019344;28;1008;-75
2024/02/29 03:40:39;;;;;;;;;;;;;;;22.15;26.52;98541.84;5035900;28;1302;-75
2024/02/29 03:43:05;;;;;;;;;;;;;;;21.80;26.89;98544.13;5019586;28;975;-75
2024/02/29 03:45:30;;;;;;;;;;;;;;;21.63;26.96;98545.25;5019436;28;983;-75
2024/02/29 03:47:56;;;;;;;;;;;;;;;21.40;27.53;98542.41;5037795;28;1121;-75
2024/02/29 03:50:24;;;;;;;;;;;;;;;21.93;26.86;98546.31;5038281;28;921;-76
2024/02/29 03:52:50;;;;;;;;;;;;;;;21.72;27.37;98545.50;5020654;28;1971;-75
2024/02/29 03:55:15;;;;;;;;;;;;;;;22.04;27.06;98546.91;5036780;28;918;-74
2024/02/29 03:57:41;;;;;;;;;;;;;;;21.95;26.86;98544.66;5036848;28;924;-75
2024/02/29 04:00:10;;;;;;;;;;;;;;;21.63;27.42;98550.91;5020227;28;895;-75
2024/02/29 04:02:39;;;;;;;;;;;;;;;21.43;27.41;98553.69;5035646;28;1158;-75
2024/02/29 04:05:05;;;;;;;;;;;;;;;21.60;27.38;98546.09;5029813;28;1203;-75
2024/02/29 04:07:31;;;;;;;;;;;;;;;21.73;27.15;98549.94;5027321;28;1237;-75
2024/02/29 04:09:56;;;;;;;;;;;;;;;21.80;27.03;98555.44;5009761;28;1430;-75
2024/02/29 04:12:22;;;;;;;;;;;;;;;21.89;27.04;98560.56;5026699;28;1979;-75
2024/02/29 04:14:47;;;;;;;;;;;;;;;21.95;26.97;98552.34;5028195;28;1304;-76
2024/02/29 04:17:13;;;;;;;;;;;;;;;21.73;27.00;98549.13;5009403;28;1285;-75
2024/02/29 04:19:38;;;;;;;;;;;;;;;21.58;27.26;98557.06;5012227;28;1238;-76
2024/02/29 04:22:04;;;;;;;;;;;;;;;21.52;27.32;98555.97;4990209;28;1544;-76
2024/02/29 04:24:29;;;;;;;;;;;;;;;21.92;26.98;98556.88;4978918;28;1931;-75
2024/02/29 04:26:55;;;;;;;;;;;;;;;21.78;27.05;98557.13;4982256;28;1267;-75
2024/02/29 04:29:20;;;;;;;;;;;;;;;21.88;27.02;98566.66;5015527;28;958;-76
2024/02/29 04:31:47;;;;;;;;;;;;;;;21.85;26.99;98574.78;4960008;28;1009;-76
2024/02/29 04:34:12;;;;;;;;;;;;;;;21.49;27.27;98582.31;4960399;28;1982;-76
2024/02/29 04:36:38;;;;;;;;;;;;;;;21.61;27.01;98576.06;4970007;28;1773;-75
2024/02/29 04:39:04;;;;;;;;;;;;;;;21.54;27.27;98587.47;4956363;29;1186;-75
2024/02/29 04:41:29;;;;;;;;;;;;;;;21.97;26.98;98575.41;4940120;29;1461;-75
2024/02/29 04:43:55;;;;;;;;;;;;;;;21.89;27.13;98585.25;4956811;29;1002;-75
2024/02/29 04:46:21;;;;;;;;;;;;;;;21.94;26.81;98581.94;4956913;29;1000;-76
2024/02/29 04:48:46;;;;;;;;;;;;;;;21.88;26.88;98584.47;4936920;29;971;-76
2024/02/29 04:51:12;;;;;;;;;;;;;;;21.67;27.20;98579.97;4925997;29;1797;-76
2024/02/29 04:53:37;;;;;;;;;;;;;;;21.55;27.47;98586.25;4934563;29;1903;-75
2024/02/29 04:56:04;;;;;;;;;;;;;;;21.27;27.58;98584.66;4944154;28;1744;-76
2024/02/29 04:58:29;;;;;;;;;;;;;;;21.73;27.33;98589.59;4975668;28;1161;-76
2024/02/29 05:00:55;;;;;;;;;;;;;;;21.75;27.45;98591.97;4975935;28;944;-76
2024/02/29 05:03:21;;;;;;;;;;;;;;;21.89;26.87;98590.91;4975418;28;1062;-75
2024/02/29 05:05:47;;;;;;;;;;;;;;;22.08;26.69;98598.66;4944005;28;965;-76
2024/02/29 05:08:12;;;;;;;;;;;;;;;21.62;27.36;98591.81;4971690;28;1674;-75
2024/02/29 05:10:38;;;;;;;;;;;;;;;21.38;27.66;98595.84;4978824;28;1086;-76
2024/02/29 05:13:04;;;;;;;;;;;;;;;21.41;27.56;98595.78;4964039;28;1974;-76
2024/02/29 05:15:29;;;;;;;;;;;;;;;21.64;27.51;98603.50;4985464;28;1811;-76
2024/02/29 05:17:55;;;;;;;;;;;;;;;21.94;27.03;98604.59;5004504;28;980;-75
2024/02/29 05:20:21;;;;;;;;;;;;;;;21.81;27.00;98602.41;5022803;28;1637;-76
2024/02/29 05:22:46;;;;;;;;;;;;;;;21.78;27.12;98597.59;5017944;28;962;-76
2024/02/29 05:25:13;;;;;;;;;;;;;;;21.79;26.99;98604.84;5000008;28;969;-75
2024/02/29 05:27:38;;;;;;;;;;;;;;;21.48;27.26;98603.38;5016529;28;919;-76
2024/02/29 05:30:05;;;;;;;;;;;;;;;21.60;27.45;98614.06;5015514;28;1463;-75
2024/02/29 05:32:31;;;;;;;;;;;;;;;21.96;26.77;98602.13;5019974;28;1913;-75
2024/02/29 05:34:56;;;;;;;;;;;;;;;21.85;27.00;98603.09;5018141;28;1185;-76
2024/02/29 05:37:22;;;;;;;;;;;;;;;22.15;26.69;98607.06;5036561;28;887;-76
2024/02/29 05:39:47;;;;;;;;;;;;;;;21.72;27.26;98604.97;5035273;28;1277;-75
2024/02/29 05:42:13;;;;;;;;;;;;;;;21.44;27.62;98599.78;5035269;28;1139;-76
2024/02/29 05:44:39;;;;;;;;;;;;;;;21.26;28.01;98606.50;5035019;28;1159;-75
2024/02/29 05:47:05;;;;;;;;;;;;;;;21.76;27.25;98604.91;5035415;28;926;-76
2024/02/29 05:49:30;;;;;;;;;;;;;;;21.88;27.26;98595.78;5034843;28;912;-75
2024/02/29 05:51:56;;;;;;;;;;;;;;;22.00;27.03;98602.84;5024273;28;1975;-75
2024/02/29 05:54:21;;;;;;;;;;;;;;;21.76;27.12;98600.06;5002700;28;929;-76
2024/02/29 05:56:47;;;;;;;;;;;;;;;21.99;27.09;98592.75;5003055;28;1128;-76
2024/02/29 05:59:12;;;;;;;;;;;;;;;21.67;27.28;98594.16;5051989;28;916;-76
2024/02/29 06:01:38;;;;;;;;;;;;;;;21.40;27.67;98593.38;5019359;28;843;-76
2024/02/29 06:04:04;;;;;;;;;;;;;;;21.64;27.14;98597.03;5020374;28;891;-76
2024/02/29 06:06:30;;;;;;;;;;;;;;;21.45;27.64;98595.72;5020365;28;920;-75
2024/02/29 06:08:55;;;;;;;;;;;;;;;21.79;27.38;98593.50;4976026;28;1336;-76
2024/02/29 06:11:21;;;;;;;;;;;;;;;22.03;26.94;98610.50;4982210;28;943;-76
2024/02/29 06:13:46;;;;;;;;;;;;;;;21.70;27.54;98601.75;4961971;28;1910;-76
2024/02/29 06:16:15;;;;;;;;;;;;;;;22.04;26.95;98607.22;4962385;28;1320;-76
2024/02/29 06:18:40;;;;;;;;;;;;;;;21.65;27.49;98610.75;4931474;28;1011;-76
2024/02/29 06:21:06;;;;;;;;;;;;;;;21.63;27.44;98618.88;4979100;28;997;-75
2024/02/29 06:23:31;;;;;;;;;;;;;;;21.42;27.59;98614.38;4978532;28;928;-76
2024/02/29 06:25:57;;;;;;;;;;;;;;;21.72;27.47;98621.19;4946213;28;940;-75
2024/02/29 06:28:22;;;;;;;;;;;;;;;21.74;27.11;98625.16;4945954;28;1205;-75
2024/02/29 06:30:48;;;;;;;;;;;;;;;21.88;27.02;98617.66;4978852;28;1008;-76
2024/02/29 06:33:14;;;;;;;;;;;;;;;21.84;26.93;98612.84;4962296;28;1960;-75
2024/02/29 06:35:39;;;;;;;;;;;;;;;21.59;27.30;98620.97;4924067;29;1003;-75
2024/02/29 06:38:05;;;;;;;;;;;;;;;21.37;27.65;98611.25;4907997;29;1147;-75
2024/02/29 06:40:30;;;;;;;;;;;;;;;21.53;27.45;98611.38;4968349;28;1261;-76
2024/02/29 06:42:56;;;;;;;;;;;;;;;21.57;27.56;98609.28;4991307;28;1041;-76
2024/02/29 06:45:21;;;;;;;;;;;;;;;21.62;27.57;98610.84;5012438;28;945;-76
2024/02/29 06:47:47;;;;;;;;;;;;;;;21.95;26.94;98606.97;5017548;28;939;-76
2024/02/29 06:50:12;;;;;;;;;;;;;;;22.12;26.72;98607.09;5000720;28;1017;-76
2024/02/29 06:52:38;;;;;;;;;;;;;;;21.76;26.91;98611.38;5001053;28;1906;-75
2024/02/29 06:55:07;;;;;;;;;;;;;;;21.33;27.61;98617.75;4967945;28;1033;-76
2024/02/29 06:57:36;;;;;;;;;;;;;;;21.70;26.88;98617.97;5001333;28;954;-76
2024/02/29 07:00:01;;;;;;;;;;;;;;;21.90;26.88;98618.81;4996970;28;1201;-77
2024/02/29 07:02:27;;;;;;;;;;;;;;;21.98;26.90;98613.84;4981473;28;977;-75
2024/02/29 07:04:53;;;;;;;;;;;;;;;21.92;27.07;98609.91;4947846;28;959;-76
2024/02/29 07:07:19;;;;;;;;;;;;;;;21.78;27.05;98611.75;5009030;28;933;-76
2024/02/29 07:09:44;;;;;;;;;;;;;;;21.62;27.18;98611.63;5018772;28;1415;-75
2024/02/29 07:12:10;;;;;;;;;;;;;;;21.49;27.12;98613.44;5001570;28;1899;-75
2024/02/29 07:14:35;;;;;;;;;;;;;;;21.79;27.08;98610.50;4996776;28;907;-76
2024/02/29 07:17:01;;;;;;;;;;;;;;;21.79;27.19;98613.34;4981002;28;1023;-76
2024/02/29 07:19:26;;;;;;;;;;;;;;;21.99;26.74;98606.94;4980903;28;943;-76
2024/02/29 07:21:53;;;;;;;;;;;;;;;22.03;26.71;98611.28;4958361;29;1470;-76
2024/02/29 07:24:18;;;;;;;;;;;;;;;21.79;26.84;98610.50;4941939;29;1036;-76
2024/02/29 07:26:44;;;;;;;;;;;;;;;21.60;27.25;98608.41;4942337;29;995;-76
2024/02/29 07:29:09;;;;;;;;;;;;;;;21.72;26.66;98616.31;4926038;29;914;-76
2024/02/29 07:31:36;;;;;;;;;;;;;;;21.94;26.98;98615.91;4942362;29;1067;-75
2024/02/29 07:34:02;;;;;;;;;;;;;;;21.81;27.01;98613.72;4941588;29;1922;-76
2024/02/29 07:36:27;;;;;;;;;;;;;;;22.07;26.56;98608.38;4958329;29;942;-76
2024/02/29 07:38:53;;;;;;;;;;;;;;;22.00;26.58;98619.84;4957797;29;1047;-75
2024/02/29 07:41:18;;;;;;;;;;;;;;;21.75;26.93;98618.25;4958000;29;954;-75
2024/02/29 07:43:44;;;;;;;;;;;;;;;21.28;27.34;98623.06;4957622;29;1010;-75
2024/02/29 07:46:10;;;;;;;;;;;;;;;21.80;27.06;98612.09;4970728;28;1243;-75
2024/02/29 07:48:35;;;;;;;;;;;;;;;21.92;26.64;98595.75;4976765;28;1196;-77
2024/02/29 07:51:01;;;;;;;;;;;;;;;22.00;26.64;98588.69;4963494;28;966;-76
2024/02/29 07:53:26;;;;;;;;;;;;;;;22.12;26.46;98599.41;4941377;29;1903;-76
2024/02/29 07:55:52;;;;;;;;;;;;;;;22.14;26.44;98599.00;4941697;29;914;-76
2024/02/29 07:58:18;;;;;;;;;;;;;;;21.66;26.79;98595.38;4958436;28;1592;-76
2024/02/29 08:00:44;;;;;;;;;;;;;;;21.43;27.23;98587.66;5012271;28;1813;-75
2024/02/29 08:03:09;;;;;;;;;;;;;;;21.62;27.12;98583.31;5012639;28;1595;-75
2024/02/29 08:05:35;;;;;;;;;;;;;;;21.71;27.09;98589.22;5013253;28;1409;-75
2024/02/29 08:08:00;;;;;;;;;;;;;;;21.65;27.13;98593.75;4995813;28;1012;-75
2024/02/29 08:10:26;;;;;;;;;;;;;;;21.94;26.83;98598.94;4996526;28;1075;-76
2024/02/29 08:12:51;;;;;;;;;;;;;;;21.84;26.98;98601.50;4979375;28;1907;-75
2024/02/29 08:15:17;;;;;;;;;;;;;;;21.42;27.30;98608.72;4979619;28;984;-75
2024/02/29 08:17:43;;;;;;;;;;;;;;;21.40;27.46;98611.19;4982668;28;1387;-75
2024/02/29 08:20:10;;;;;;;;;;;;;;;21.30;27.74;98610.13;5014232;28;1847;-76
2024/02/29 08:22:36;;;;;;;;;;;;;;;21.68;27.00;98615.56;5036364;28;994;-76
2024/02/29 08:25:01;;;;;;;;;;;;;;;21.89;26.92;98613.59;5034913;28;1726;-76
2024/02/29 08:27:27;;;;;;;;;;;;;;;21.98;26.76;98622.34;5037258;28;951;-76
2024/02/29 08:29:52;;;;;;;;;;;;;;;22.07;26.45;98625.38;5037444;28;959;-76
2024/02/29 08:32:18;;;;;;;;;;;;;;;21.82;26.64;98612.50;5037483;28;1981;-75
2024/02/29 08:34:44;;;;;;;;;;;;;;;21.27;27.58;98622.25;5019351;28;1072;-76
2024/02/29 08:37:10;;;;;;;;;;;;;;;21.42;27.38;98625.69;5037686;28;927;-76
2024/02/29 08:39:36;;;;;;;;;;;;;;;21.91;26.66;98628.91;5036217;28;1061;-76
2024/02/29 08:42:01;;;;;;;;;;;;;;;21.73;27.20;98617.91;5015313;28;1073;-76
2024/02/29 08:44:27;;;;;;;;;;;;;;;22.04;26.68;98614.94;5017279;28;1000;-76
2024/02/29 08:46:52;;;;;;;;;;;;;;;22.06;26.30;98612.44;5016555;28;1060;-76
2024/02/29 08:49:18;;;;;;;;;;;;;;;21.77;26.91;98612.97;5010823;28;937;-75
2024/02/29 08:51:43;;;;;;;;;;;;;;;21.66;26.61;98615.22;5030173;28;1504;-75
2024/02/29 08:54:09;;;;;;;;;;;;;;;21.84;27.00;98610.00;5035379;28;1906;-76
2024/02/29 08:56:34;;;;;;;;;;;;;;;21.98;26.55;98611.00;5029839;28;909;-75
2024/02/29 08:59:00;;;;;;;;;;;;;;;22.01;26.64;98615.78;5017410;28;890;-76
2024/02/29 09:01:26;;;;;;;;;;;;;;;22.01;26.58;98610.91;5026664;28;1502;-75
2024/02/29 09:03:53;;;;;;;;;;;;;;;21.52;27.14;98618.28;5003129;28;1782;-76
2024/02/29 09:06:18;;;;;;;;;;;;;;;21.32;27.33;98613.31;5019665;28;1538;-76
2024/02/29 09:08:44;;;;;;;;;;;;;;;21.29;27.51;98610.50;5035549;28;881;-74
2024/02/29 09:11:09;;;;;;;;;;;;;;;21.56;27.05;98608.50;5035597;28;873;-75
2024/02/29 09:13:35;;;;;;;;;;;;;;;21.84;26.94;98607.19;5035222;28;1913;-76
2024/02/29 09:16:00;;;;;;;;;;;;;;;22.18;26.46;98605.41;5036231;28;903;-76
2024/02/29 09:18:26;;;;;;;;;;;;;;;21.96;26.50;98600.06;5033698;28;1634;-75
2024/02/29 09:20:51;;;;;;;;;;;;;;;21.60;27.15;98597.06;5016129;28;999;-76
2024/02/29 09:23:17;;;;;;;;;;;;;;;21.27;27.55;98596.00;5000153;28;1258;-76
2024/02/29 09:25:42;;;;;;;;;;;;;;;21.27;27.53;98608.09;5008772;28;1226;-76
2024/02/29 09:28:08;;;;;;;;;;;;;;;21.63;27.38;98613.22;5014257;28;1000;-75
2024/02/29 09:30:34;;;;;;;;;;;;;;;21.95;26.64;98606.19;5029125;28;1384;-75
2024/02/29 09:32:59;;;;;;;;;;;;;;;22.03;26.36;98607.66;5003891;28;1987;-76
2024/02/29 09:35:25;;;;;;;;;;;;;;;21.94;26.81;98604.59;4986082;28;2003;-75
2024/02/29 09:37:50;;;;;;;;;;;;;;;22.01;26.72;98604.44;4998316;28;1717;-76
2024/02/29 09:40:20;;;;;;;;;;;;;;;21.67;26.83;98608.31;4997505;28;1588;-76
2024/02/29 09:42:46;;;;;;;;;;;;;;;21.44;27.30;98600.59;4978990;28;923;-76
2024/02/29 09:45:14;;;;;;;;;;;;;;;21.37;27.51;98597.88;4978483;28;1139;-76
2024/02/29 09:47:40;;;;;;;;;;;;;;;21.86;27.03;98601.06;4979345;28;1091;-76
2024/02/29 09:50:06;;;;;;;;;;;;;;;22.01;26.58;98598.78;4972627;28;998;-76
2024/02/29 09:52:32;;;;;;;;;;;;;;;22.08;26.56;98593.00;4975143;28;1961;-76
2024/02/29 09:55:03;;;;;;;;;;;;;;;21.90;26.92;98586.84;4990402;28;1004;-76
2024/02/29 09:57:29;;;;;;;;;;;;;;;21.67;27.24;98599.00;4994062;28;965;-76
2024/02/29 09:59:54;;;;;;;;;;;;;;;21.28;27.50;98592.72;5011406;28;1951;-76
2024/02/29 10:02:20;;;;;;;;;;;;;;;21.44;27.21;98597.75;4997194;28;1904;-76
2024/02/29 10:04:46;;;;;;;;;;;;;;;21.62;27.25;98591.81;4965183;28;1924;-76
2024/02/29 10:07:12;;;;;;;;;;;;;;;21.88;27.00;98595.00;4978420;28;1070;-76
2024/02/29 10:09:37;;;;;;;;;;;;;;;21.99;26.84;98595.59;4994646;28;963;-75
2024/02/29 10:12:04;;;;;;;;;;;;;;;22.05;26.60;98593.84;4977966;28;1894;-76
2024/02/29 10:14:30;;;;;;;;;;;;;;;21.92;26.64;98595.75;5015718;28;1977;-75
2024/02/29 10:16:56;;;;;;;;;;;;;;;21.61;27.15;98598.69;5036514;28;1103;-76
2024/02/29 10:19:22;;;;;;;;;;;;;;;21.51;27.13;98588.34;5034743;28;1309;-75
2024/02/29 10:21:48;;;;;;;;;;;;;;;21.72;27.24;98590.81;5035166;28;1109;-76
2024/02/29 10:24:13;;;;;;;;;;;;;;;22.02;26.63;98583.38;4981248;28;1270;-75
2024/02/29 10:26:39;;;;;;;;;;;;;;;21.93;27.00;98574.66;5013994;28;1087;-75
2024/02/29 10:29:11;;;;;;;;;;;;;;;22.20;26.23;98572.53;4996249;28;1846;-75
2024/02/29 10:31:36;;;;;;;;;;;;;;;21.83;26.69;98570.78;4997137;28;1780;-76
2024/02/29 10:34:02;;;;;;;;;;;;;;;21.62;27.10;98566.31;5013807;28;1921;-76
2024/02/29 10:36:27;;;;;;;;;;;;;;;21.37;27.39;98568.78;4997572;28;1117;-76
2024/02/29 10:38:55;;;;;;;;;;;;;;;21.53;27.72;98568.91;4998185;28;1369;-75
2024/02/29 10:41:24;;;;;;;;;;;;;;;21.81;27.08;98567.56;5001441;28;983;-76
2024/02/29 10:43:50;;;;;;;;;;;;;;;21.78;27.12;98563.59;5000730;28;1347;-75
2024/02/29 10:46:17;;;;;;;;;;;;;;;21.92;26.90;98568.19;4991143;28;1411;-76
2024/02/29 10:48:47;;;;;;;;;;;;;;;21.59;27.35;98567.16;4964907;28;1342;-77
2024/02/29 10:51:26;;;;;;;;;;;;;;;21.59;27.15;98561.50;4981889;28;984;-76
2024/02/29 10:54:00;;;;;;;;;;;;;;;21.47;27.40;98559.31;4965024;28;1910;-76
2024/02/29 10:56:27;;;;;;;;;;;;;;;21.74;26.99;98551.53;5017988;28;1955;-76
2024/02/29 10:59:05;;;;;;;;;;;;;;;21.82;27.09;98547.34;5018086;28;930;-76
2024/02/29 11:01:31;;;;;;;;;;;;;;;21.96;26.75;98545.44;5018207;28;908;-75
2024/02/29 11:03:56;;;;;;;;;;;;;;;22.04;26.64;98544.09;5001501;28;1241;-75
2024/02/29 11:06:22;;;;;;;;;;;;;;;21.70;27.08;98539.44;5017986;28;983;-76
2024/02/29 11:08:47;;;;;;;;;;;;;;;21.53;27.07;98543.41;5018371;28;1891;-76
2024/02/29 11:11:14;;;;;;;;;;;;;;;21.74;27.18;98540.19;5019190;28;971;-75
2024/02/29 11:13:40;;;;;;;;;;;;;;;21.89;26.83;98537.88;5017413;28;1924;-75
2024/02/29 11:16:10;;;;;;;;;;;;;;;21.84;26.89;98544.84;5001803;28;1143;-76
2024/02/29 11:18:37;;;;;;;;;;;;;;;21.90;27.06;98541.53;5017328;28;940;-76
2024/02/29 11:21:04;;;;;;;;;;;;;;;21.84;26.69;98533.53;5017779;28;880;-76
2024/02/29 11:23:30;;;;;;;;;;;;;;;21.90;26.85;98524.53;5028247;28;1820;-76
2024/02/29 11:25:57;;;;;;;;;;;;;;;21.59;26.80;98530.34;5018300;28;1751;-76
2024/02/29 11:28:30;;;;;;;;;;;;;;;21.65;27.21;98531.44;5037168;28;952;-75
2024/02/29 11:30:55;;;;;;;;;;;;;;;21.85;26.81;98529.44;5020034;28;1016;-76
2024/02/29 11:33:21;;;;;;;;;;;;;;;21.87;26.68;98520.53;5025295;28;1985;-76
2024/02/29 11:35:46;;;;;;;;;;;;;;;21.89;27.01;98517.25;5017610;28;1322;-76
2024/02/29 11:38:12;;;;;;;;;;;;;;;21.98;26.85;98515.47;5018249;28;1959;-76
2024/02/29 11:40:37;;;;;;;;;;;;;;;21.61;27.30;98519.41;5017708;28;1260;-76
2024/02/29 11:43:07;;;;;;;;;;;;;;;21.41;27.63;98518.56;5018196;28;1001;-75
2024/02/29 11:45:32;;;;;;;;;;;;;;;21.63;27.14;98511.28;5018963;28;1008;-76
2024/02/29 11:47:58;;;;;;;;;;;;;;;21.72;26.88;98508.69;5018502;28;942;-75
2024/02/29 11:50:24;;;;;;;;;;;;;;;21.87;26.79;98508.41;5017885;28;911;-75
2024/02/29 11:52:50;;;;;;;;;;;;;;;21.88;26.92;98507.16;5017141;28;1987;-76
2024/02/29 11:55:15;;;;;;;;;;;;;;;22.14;26.65;98517.59;5000706;28;1152;-76
2024/02/29 11:57:42;;;;;;;;;;;;;;;21.76;26.91;98515.09;5017003;28;923;-76
2024/02/29 12:00:07;;;;;;;;;;;;;;;21.42;27.36;98506.00;5016658;28;900;-76
2024/02/29 12:02:34;;;;;;;;;;;;;;;21.32;27.40;98508.59;5016521;28;1295;-75
2024/02/29 12:04:59;;;;;;;;;;;;;;;21.63;27.22;98502.78;5000634;28;992;-76
2024/02/29 12:07:25;;;;;;;;;;;;;;;21.86;26.86;98496.25;4961072;28;1261;-75
2024/02/29 12:09:51;;;;;;;;;;;;;;;21.99;26.77;98499.25;4960223;28;1488;-76
2024/02/29 12:12:18;;;;;;;;;;;;;;;22.00;26.51;98500.84;4958573;28;1914;-76
2024/02/29 12:14:43;;;;;;;;;;;;;;;21.89;26.75;98503.09;4979695;28;978;-76
2024/02/29 12:17:09;;;;;;;;;;;;;;;21.69;27.17;98506.69;4980357;28;921;-76
2024/02/29 12:19:34;;;;;;;;;;;;;;;21.13;28.00;98506.44;4978848;28;1975;-76
2024/02/29 12:22:00;;;;;;;;;;;;;;;21.36;27.58;98507.72;4995994;28;1015;-75
2024/02/29 12:24:26;;;;;;;;;;;;;;;21.85;27.00;98494.66;4979811;28;964;-76
2024/02/29 12:26:51;;;;;;;;;;;;;;;22.03;26.81;98494.31;4965725;28;1977;-76
2024/02/29 12:29:17;;;;;;;;;;;;;;;21.96;26.69;98491.59;4976568;28;969;-75
2024/02/29 12:31:43;;;;;;;;;;;;;;;21.75;27.26;98490.78;4960562;28;994;-75
2024/02/29 12:34:09;;;;;;;;;;;;;;;21.49;27.61;98488.88;4921909;29;1911;-76
2024/02/29 12:36:34;;;;;;;;;;;;;;;21.26;27.79;98492.50;4922678;29;885;-76
2024/02/29 12:39:01;;;;;;;;;;;;;;;21.59;27.72;98488.69;4966418;28;1079;-75
2024/02/29 12:41:26;;;;;;;;;;;;;;;21.81;27.32;98489.09;4988203;28;2096;-75
2024/02/29 12:43:54;;;;;;;;;;;;;;;21.91;27.04;98480.78;4979317;28;1151;-75
2024/02/29 12:46:19;;;;;;;;;;;;;;;21.94;27.06;98486.38;4979427;28;1970;-76
2024/02/29 12:48:46;;;;;;;;;;;;;;;21.56;27.21;98483.09;4995714;28;1054;-76
2024/02/29 12:51:11;;;;;;;;;;;;;;;21.55;27.21;98487.13;4979321;28;1163;-76
2024/02/29 12:53:37;;;;;;;;;;;;;;;21.26;27.74;98487.63;4976244;28;1914;-76